createdAt,value
2023-04-02T00:00:00.120Z,64.19
2023-04-02T00:01:00.144Z,64.08
2023-04-02T00:02:00.264Z,64.04
2023-04-02T00:03:00.396Z,64.13
2023-04-02T00:04:00.271Z,64.18
2023-04-02T00:05:00.342Z,64.33
2023-04-02T00:06:00.427Z,64.46
2023-04-02T00:07:00.470Z,64.67
2023-04-02T00:08:00.468Z,64.67
2023-04-02T00:09:00.494Z,64.84
2023-04-02T00:10:00.518Z,64.86
2023-04-02T00:11:00.541Z,64.76
2023-04-02T00:12:00.588Z,64.74
2023-04-02T00:13:00.583Z,64.95
2023-04-02T00:14:00.630Z,65.06
2023-04-02T00:15:00.644Z,65.12
2023-04-02T00:16:00.697Z,65.23
2023-04-02T00:17:00.705Z,65.08
2023-04-02T00:18:00.766Z,64.95
2023-04-02T00:19:01.536Z,64.83
2023-04-02T00:20:00.772Z,64.82
2023-04-02T00:21:00.830Z,65.05
2023-04-02T00:22:00.890Z,64.95
2023-04-02T00:23:00.913Z,65.06
2023-04-02T00:24:00.928Z,65.00
2023-04-02T00:25:00.981Z,64.99
2023-04-02T00:26:01.004Z,65.02
2023-04-02T00:27:01.054Z,65.12
2023-04-02T00:28:01.122Z,65.00
2023-04-02T00:29:01.115Z,64.89
2023-04-02T00:30:01.128Z,64.85
2023-04-02T00:31:01.149Z,64.85
2023-04-02T00:32:01.254Z,64.85
2023-04-02T00:33:01.229Z,64.77
2023-04-02T00:34:01.237Z,64.62
2023-04-02T00:35:01.266Z,64.55
2023-04-02T00:36:01.292Z,64.68
2023-04-02T00:37:01.289Z,64.66
2023-04-02T00:38:01.380Z,64.60
2023-04-02T00:39:01.465Z,64.53
2023-04-02T00:40:01.489Z,64.66
2023-04-02T00:41:01.583Z,64.76
2023-04-02T00:42:01.662Z,64.91
2023-04-02T00:43:01.765Z,64.90
2023-04-02T00:44:01.853Z,64.63
2023-04-02T00:45:01.900Z,64.41
2023-04-02T00:46:01.970Z,64.26
2023-04-02T00:47:02.014Z,64.25
2023-04-02T00:48:02.126Z,64.20
2023-04-02T00:49:02.274Z,64.33
2023-04-02T00:50:02.254Z,64.35
2023-04-02T00:51:02.328Z,64.33
2023-04-02T00:52:02.389Z,64.18
2023-04-02T00:53:02.428Z,64.24
2023-04-02T00:54:02.506Z,64.25
2023-04-02T00:55:02.529Z,64.24
2023-04-02T00:56:02.603Z,64.22
2023-04-02T00:57:02.660Z,64.22
2023-04-02T00:58:02.713Z,64.26
2023-04-02T00:59:02.725Z,64.45
2023-04-02T01:00:02.782Z,64.43
2023-04-02T01:01:02.916Z,64.24
2023-04-02T01:02:02.914Z,64.10
2023-04-02T01:03:03.026Z,64.23
2023-04-02T01:04:03.217Z,64.34
2023-04-02T01:05:03.166Z,64.46
2023-04-02T01:06:03.243Z,64.55
2023-04-02T01:07:03.302Z,64.70
2023-04-02T01:08:03.409Z,64.70
2023-04-02T01:09:03.472Z,64.52
2023-04-02T01:10:03.544Z,64.61
2023-04-02T01:11:03.645Z,64.70
2023-04-02T01:12:03.720Z,64.86
2023-04-02T01:13:03.814Z,64.90
2023-04-02T01:14:03.921Z,64.76
2023-04-02T01:15:04.059Z,64.53
2023-04-02T01:16:04.109Z,64.43
2023-04-02T01:17:04.158Z,64.55
2023-04-02T01:18:04.326Z,64.40
2023-04-02T01:19:04.333Z,64.37
2023-04-02T01:20:04.443Z,64.40
2023-04-02T01:21:04.488Z,64.37
2023-04-02T01:22:04.577Z,64.40
2023-04-02T01:23:04.659Z,64.27
2023-04-02T01:24:04.726Z,64.15
2023-04-02T01:25:04.762Z,64.14
2023-04-02T01:26:04.803Z,64.05
2023-04-02T01:27:04.873Z,64.01
2023-04-02T01:28:04.965Z,64.01
2023-04-02T01:29:05.070Z,64.11
2023-04-02T01:30:05.147Z,64.04
2023-04-02T01:31:05.277Z,64.02
2023-04-02T01:32:05.305Z,64.06
2023-04-02T01:33:05.434Z,64.26
2023-04-02T01:34:05.485Z,64.22
2023-04-02T01:35:05.561Z,64.09
2023-04-02T01:36:05.645Z,64.09
2023-04-02T01:37:05.692Z,64.56
2023-04-02T01:38:05.767Z,64.86
2023-04-02T01:39:05.811Z,64.98
2023-04-02T01:40:05.931Z,65.12
2023-04-02T01:41:05.953Z,64.99
2023-04-02T01:42:05.980Z,64.92
2023-04-02T01:43:06.038Z,64.98
2023-04-02T01:44:06.118Z,65.03
2023-04-02T01:45:06.199Z,64.94
2023-04-02T01:46:06.274Z,65.05
2023-04-02T01:47:06.342Z,65.22
2023-04-02T01:48:06.427Z,65.16
2023-04-02T01:49:06.571Z,64.94
2023-04-02T01:50:06.544Z,64.84
2023-04-02T01:51:06.612Z,64.75
2023-04-02T01:52:06.652Z,64.65
2023-04-02T01:53:06.712Z,64.55
2023-04-02T01:54:06.756Z,64.37
2023-04-02T01:55:06.804Z,64.36
2023-04-02T01:56:06.898Z,64.35
2023-04-02T01:57:07.055Z,64.19
2023-04-02T01:58:07.076Z,63.72
2023-04-02T01:59:07.138Z,63.61
2023-04-02T02:00:07.258Z,63.42
2023-04-02T02:01:07.340Z,63.27
2023-04-02T02:02:07.421Z,63.15
2023-04-02T02:03:07.525Z,63.29
2023-04-02T02:04:07.489Z,63.62
2023-04-02T02:05:07.560Z,63.95
2023-04-02T02:06:07.567Z,64.17
2023-04-02T02:07:07.597Z,64.48
2023-04-02T02:08:08.546Z,64.34
2023-04-02T02:09:08.546Z,64.28
2023-04-02T02:10:07.736Z,64.18
2023-04-02T02:11:07.732Z,64.21
2023-04-02T02:12:07.740Z,64.25
2023-04-02T02:13:07.769Z,64.26
2023-04-02T02:14:07.802Z,64.31
2023-04-02T02:15:07.814Z,64.36
2023-04-02T02:16:07.908Z,64.49
2023-04-02T02:17:07.883Z,64.53
2023-04-02T02:18:07.919Z,64.48
2023-04-02T02:19:08.537Z,64.37
2023-04-02T02:20:07.976Z,64.48
2023-04-02T02:21:07.995Z,64.56
2023-04-02T02:22:08.058Z,64.58
2023-04-02T02:23:08.064Z,64.85
2023-04-02T02:24:08.136Z,64.89
2023-04-02T02:25:08.201Z,64.92
2023-04-02T02:26:09.051Z,64.97
2023-04-02T02:27:08.317Z,64.96
2023-04-02T02:28:08.313Z,65.15
2023-04-02T02:29:08.390Z,64.99
2023-04-02T02:30:08.492Z,64.74
2023-04-02T02:31:09.047Z,64.50
2023-04-02T02:32:08.654Z,64.52
2023-04-02T02:33:08.628Z,64.50
2023-04-02T02:34:08.672Z,64.60
2023-04-02T02:35:08.767Z,64.75
2023-04-02T02:36:08.827Z,64.67
2023-04-02T02:37:08.934Z,64.92
2023-04-02T02:38:08.947Z,65.05
2023-04-02T02:39:09.576Z,64.89
2023-04-02T02:40:08.983Z,64.65
2023-04-02T02:41:09.025Z,64.32
2023-04-02T02:42:09.564Z,64.14
2023-04-02T02:43:09.061Z,63.77
2023-04-02T02:44:10.265Z,63.53
2023-04-02T02:45:09.086Z,63.52
2023-04-02T02:46:09.115Z,63.62
2023-04-02T02:47:09.203Z,63.76
2023-04-02T02:48:09.161Z,63.71
2023-04-02T02:49:09.180Z,63.72
2023-04-02T02:50:09.337Z,63.89
2023-04-02T02:51:09.244Z,64.04
2023-04-02T02:52:10.049Z,64.09
2023-04-02T02:53:09.309Z,64.09
2023-04-02T02:54:09.583Z,64.22
2023-04-02T02:55:09.438Z,64.44
2023-04-02T02:56:09.484Z,64.46
2023-04-02T02:57:10.564Z,64.38
2023-04-02T02:58:10.548Z,64.29
2023-04-02T02:59:09.757Z,64.18
2023-04-02T03:00:09.868Z,64.09
2023-04-02T03:01:09.987Z,64.10
2023-04-02T03:02:10.009Z,64.09
2023-04-02T03:03:10.169Z,64.05
2023-04-02T03:04:10.266Z,64.08
2023-04-02T03:05:10.294Z,64.03
2023-04-02T03:06:10.351Z,63.98
2023-04-02T03:07:10.424Z,64.12
2023-04-02T03:08:10.549Z,64.29
2023-04-02T03:09:10.679Z,64.28
2023-04-02T03:10:10.742Z,64.24
2023-04-02T03:11:10.758Z,64.30
2023-04-02T03:12:11.554Z,64.49
2023-04-02T03:13:10.781Z,64.53
2023-04-02T03:14:10.854Z,64.55
2023-04-02T03:15:10.877Z,64.63
2023-04-02T03:16:10.906Z,64.69
2023-04-02T03:17:10.876Z,64.57
2023-04-02T03:18:10.910Z,64.62
2023-04-02T03:19:10.925Z,64.58
2023-04-02T03:20:10.955Z,64.42
2023-04-02T03:21:11.006Z,64.46
2023-04-02T03:22:11.030Z,64.48
2023-04-02T03:23:11.044Z,64.30
2023-04-02T03:24:11.065Z,64.54
2023-04-02T03:25:11.114Z,64.59
2023-04-02T03:26:11.152Z,64.47
2023-04-02T03:27:11.136Z,64.42
2023-04-02T03:28:11.170Z,64.45
2023-04-02T03:29:11.192Z,64.46
2023-04-02T03:30:12.102Z,64.47
2023-04-02T03:31:11.343Z,64.68
2023-04-02T03:32:11.260Z,64.74
2023-04-02T03:33:11.290Z,64.86
2023-04-02T03:34:11.343Z,64.85
2023-04-02T03:35:11.354Z,64.79
2023-04-02T03:36:11.416Z,64.61
2023-04-02T03:37:11.481Z,64.81
2023-04-02T03:38:11.537Z,64.89
2023-04-02T03:39:11.563Z,64.90
2023-04-02T03:40:12.048Z,64.79
2023-04-02T03:41:11.578Z,64.74
2023-04-02T03:42:11.606Z,64.68
2023-04-02T03:43:12.548Z,64.56
2023-04-02T03:44:11.681Z,64.40
2023-04-02T03:45:11.715Z,64.47
2023-04-02T03:46:12.145Z,64.52
2023-04-02T03:47:11.750Z,64.54
2023-04-02T03:48:11.858Z,64.39
2023-04-02T03:49:13.570Z,64.35
2023-04-02T03:50:11.857Z,64.38
2023-04-02T03:51:11.893Z,64.51
2023-04-02T03:52:12.050Z,64.71
2023-04-02T03:53:12.030Z,64.40
2023-04-02T03:54:12.037Z,64.22
2023-04-02T03:55:12.104Z,64.08
2023-04-02T03:56:12.145Z,64.41
2023-04-02T03:57:12.239Z,64.64
2023-04-02T03:58:13.357Z,64.63
2023-04-02T03:59:12.392Z,64.57
2023-04-02T04:00:12.560Z,64.52
2023-04-02T04:01:12.581Z,64.67
2023-04-02T04:02:12.691Z,64.60
2023-04-02T04:03:12.782Z,64.63
2023-04-02T04:04:12.824Z,64.57
2023-04-02T04:05:12.841Z,64.24
2023-04-02T04:06:12.907Z,63.96
2023-04-02T04:07:12.939Z,63.90
2023-04-02T04:08:13.023Z,63.88
2023-04-02T04:09:13.121Z,64.37
2023-04-02T04:10:13.204Z,64.49
2023-04-02T04:11:13.334Z,64.42
2023-04-02T04:12:13.358Z,64.41
2023-04-02T04:13:13.433Z,64.29
2023-04-02T04:14:13.581Z,64.09
2023-04-02T04:15:13.625Z,64.28
2023-04-02T04:16:13.803Z,64.31
2023-04-02T04:17:13.903Z,64.34
2023-04-02T04:18:13.919Z,64.34
2023-04-02T04:19:13.991Z,64.36
2023-04-02T04:20:14.080Z,64.45
2023-04-02T04:21:14.127Z,64.50
2023-04-02T04:22:14.137Z,64.68
2023-04-02T04:23:14.201Z,64.79
2023-04-02T04:24:14.240Z,64.86
2023-04-02T04:25:14.303Z,64.87
2023-04-02T04:26:14.374Z,64.86
2023-04-02T04:27:15.063Z,65.00
2023-04-02T04:28:14.472Z,64.90
2023-04-02T04:29:14.535Z,64.88
2023-04-02T04:30:14.626Z,64.59
2023-04-02T04:31:14.735Z,64.53
2023-04-02T04:32:14.725Z,64.66
2023-04-02T04:33:15.738Z,64.74
2023-04-02T04:34:14.821Z,64.80
2023-04-02T04:35:14.888Z,64.56
2023-04-02T04:36:14.970Z,64.36
2023-04-02T04:37:14.973Z,64.40
2023-04-02T04:38:15.019Z,64.60
2023-04-02T04:39:15.073Z,64.82
2023-04-02T04:40:16.076Z,64.89
2023-04-02T04:41:15.163Z,64.75
2023-04-02T04:42:15.236Z,64.85
2023-04-02T04:43:15.327Z,64.67
2023-04-02T04:44:16.095Z,64.62
2023-04-02T04:45:15.382Z,64.62
2023-04-02T04:46:15.553Z,64.72
2023-04-02T04:47:15.591Z,64.69
2023-04-02T04:48:15.556Z,64.60
2023-04-02T04:49:15.638Z,64.53
2023-04-02T04:50:15.697Z,64.64
2023-04-02T04:51:15.697Z,64.61
2023-04-02T04:52:15.776Z,64.54
2023-04-02T04:53:15.807Z,64.51
2023-04-02T04:54:15.833Z,64.50
2023-04-02T04:55:15.983Z,64.73
2023-04-02T04:56:19.257Z,64.87
2023-04-02T04:57:16.021Z,64.87
2023-04-02T04:58:16.022Z,64.90
2023-04-02T04:59:16.078Z,64.85
2023-04-02T05:00:16.081Z,64.94
2023-04-02T05:01:16.199Z,64.90
2023-04-02T05:02:16.174Z,64.85
2023-04-02T05:03:16.198Z,64.94
2023-04-02T05:04:16.287Z,64.90
2023-04-02T05:05:16.274Z,64.80
2023-04-02T05:06:16.304Z,64.75
2023-04-02T05:07:16.341Z,64.75
2023-04-02T05:08:16.378Z,64.65
2023-04-02T05:09:16.428Z,64.67
2023-04-02T05:10:16.480Z,64.73
2023-04-02T05:11:16.481Z,64.62
2023-04-02T05:12:16.519Z,64.45
2023-04-02T05:13:16.555Z,64.36
2023-04-02T05:14:16.579Z,64.27
2023-04-02T05:15:16.613Z,64.18
2023-04-02T05:16:16.683Z,64.06
2023-04-02T05:17:16.666Z,64.04
2023-04-02T05:18:16.705Z,64.00
2023-04-02T05:19:16.736Z,64.01
2023-04-02T05:20:16.755Z,64.15
2023-04-02T05:21:16.796Z,64.19
2023-04-02T05:22:17.083Z,64.22
2023-04-02T05:23:16.978Z,64.18
2023-04-02T05:24:16.915Z,64.23
2023-04-02T05:25:16.975Z,64.24
2023-04-02T05:26:17.568Z,64.04
2023-04-02T05:27:17.092Z,63.76
2023-04-02T05:28:17.122Z,63.68
2023-04-02T05:29:18.079Z,63.62
2023-04-02T05:30:18.166Z,63.42
2023-04-02T05:31:17.487Z,63.03
2023-04-02T05:32:17.472Z,62.71
2023-04-02T05:33:17.566Z,62.31
2023-04-02T05:34:17.630Z,62.05
2023-04-02T05:35:17.713Z,62.03
2023-04-02T05:36:17.803Z,62.22
2023-04-02T05:37:17.908Z,62.61
2023-04-02T05:38:17.929Z,62.63
2023-04-02T05:39:18.034Z,62.50
2023-04-02T05:40:18.129Z,62.31
2023-04-02T05:41:18.205Z,62.33
2023-04-02T05:42:18.265Z,62.20
2023-04-02T05:43:18.311Z,62.19
2023-04-02T05:44:18.385Z,62.27
2023-04-02T05:45:18.424Z,62.26
2023-04-02T05:46:18.469Z,62.36
2023-04-02T05:47:18.443Z,62.41
2023-04-02T05:48:18.457Z,62.10
2023-04-02T05:49:18.485Z,61.92
2023-04-02T05:50:18.523Z,61.86
2023-04-02T05:51:18.525Z,61.78
2023-04-02T05:52:18.571Z,61.66
2023-04-02T05:53:18.575Z,61.62
2023-04-02T05:54:18.574Z,61.54
2023-04-02T05:55:18.600Z,61.41
2023-04-02T05:56:18.594Z,61.31
2023-04-02T05:57:19.358Z,61.18
2023-04-02T05:59:18.645Z,61.05
2023-04-02T06:00:19.565Z,60.87
2023-04-02T06:01:18.669Z,60.90
2023-04-02T06:02:18.761Z,60.73
2023-04-02T06:03:18.767Z,60.76
2023-04-02T06:04:18.744Z,60.82
2023-04-02T06:05:18.753Z,60.82
2023-04-02T06:06:18.798Z,60.93
2023-04-02T06:07:18.799Z,60.74
2023-04-02T06:08:18.817Z,60.12
2023-04-02T06:09:18.823Z,59.65
2023-04-02T06:10:18.826Z,59.36
2023-04-02T06:11:18.840Z,59.24
2023-04-02T06:12:18.859Z,59.37
2023-04-02T06:13:18.834Z,59.46
2023-04-02T06:14:18.842Z,59.26
2023-04-02T06:15:18.880Z,59.08
2023-04-02T06:16:18.876Z,59.02
2023-04-02T06:17:18.886Z,59.01
2023-04-02T06:18:18.902Z,58.99
2023-04-02T06:19:18.906Z,58.86
2023-04-02T06:20:18.912Z,58.64
2023-04-02T06:21:18.910Z,58.59
2023-04-02T06:22:18.919Z,58.45
2023-04-02T06:23:18.981Z,58.32
2023-04-02T06:24:18.916Z,58.18
2023-04-02T06:25:18.924Z,58.11
2023-04-02T06:26:18.948Z,58.06
2023-04-02T06:27:18.954Z,57.90
2023-04-02T06:28:19.032Z,57.89
2023-04-02T06:29:18.993Z,57.82
2023-04-02T06:30:19.006Z,57.70
2023-04-02T06:31:19.043Z,57.63
2023-04-02T06:32:19.068Z,57.73
2023-04-02T06:33:19.097Z,57.82
2023-04-02T06:34:19.102Z,57.58
2023-04-02T06:35:19.306Z,57.43
2023-04-02T06:36:19.154Z,57.37
2023-04-02T06:37:19.142Z,57.25
2023-04-02T06:38:19.184Z,57.12
2023-04-02T06:39:19.261Z,57.03
2023-04-02T06:40:19.333Z,56.97
2023-04-02T06:41:19.399Z,56.92
2023-04-02T06:42:19.479Z,56.81
2023-04-02T06:43:19.514Z,56.31
2023-04-02T06:44:19.587Z,56.00
2023-04-02T06:45:19.610Z,55.73
2023-04-02T06:46:19.650Z,55.66
2023-04-02T06:47:19.679Z,55.75
2023-04-02T06:48:19.695Z,55.65
2023-04-02T06:49:19.712Z,55.33
2023-04-02T06:50:19.717Z,54.96
2023-04-02T06:51:19.716Z,54.73
2023-04-02T06:52:19.747Z,54.85
2023-04-02T06:53:19.759Z,54.94
2023-04-02T06:54:19.753Z,54.88
2023-04-02T06:55:19.845Z,54.80
2023-04-02T06:56:19.807Z,54.95
2023-04-02T06:57:19.829Z,55.06
2023-04-02T06:58:19.832Z,55.02
2023-04-02T06:59:19.844Z,55.07
2023-04-02T07:00:19.839Z,55.15
2023-04-02T07:01:19.868Z,55.17
2023-04-02T07:02:19.845Z,55.22
2023-04-02T07:03:19.849Z,55.19
2023-04-02T07:04:20.634Z,55.03
2023-04-02T07:05:19.925Z,54.98
2023-04-02T07:06:20.591Z,55.05
2023-04-02T07:07:20.032Z,54.93
2023-04-02T07:08:20.106Z,54.49
2023-04-02T07:09:20.171Z,54.34
2023-04-02T07:10:20.212Z,54.36
2023-04-02T07:11:21.049Z,54.32
2023-04-02T07:12:20.305Z,54.21
2023-04-02T07:13:20.315Z,53.87
2023-04-02T07:14:20.295Z,53.33
2023-04-02T07:15:20.303Z,52.80
2023-04-02T07:16:20.364Z,53.58
2023-04-02T07:17:20.327Z,53.79
2023-04-02T07:18:20.303Z,53.33
2023-04-02T07:19:20.335Z,53.20
2023-04-02T07:20:21.099Z,52.90
2023-04-02T07:21:20.315Z,52.61
2023-04-02T07:22:20.303Z,52.65
2023-04-02T07:23:20.307Z,53.07
2023-04-02T07:24:20.297Z,53.43
2023-04-02T07:25:20.310Z,53.50
2023-04-02T07:26:20.308Z,53.86
2023-04-02T07:27:20.318Z,53.84
2023-04-02T07:28:22.006Z,53.05
2023-04-02T07:29:20.345Z,52.85
2023-04-02T07:30:20.352Z,53.07
2023-04-02T07:31:20.420Z,53.05
2023-04-02T07:32:20.367Z,52.66
2023-04-02T07:33:20.411Z,52.50
2023-04-02T07:34:20.465Z,52.24
2023-04-02T07:35:20.505Z,51.84
2023-04-02T07:36:20.601Z,51.70
2023-04-02T07:37:20.644Z,52.01
2023-04-02T07:38:20.705Z,52.10
2023-04-02T07:39:20.729Z,52.01
2023-04-02T07:40:20.780Z,51.41
2023-04-02T07:42:04.198Z,51.02
2023-04-02T07:43:04.169Z,50.41
2023-04-02T07:44:04.174Z,50.18
2023-04-02T07:45:06.091Z,49.72
2023-04-02T07:46:04.136Z,48.86
2023-04-02T07:47:04.240Z,48.12
2023-04-02T07:48:04.120Z,47.79
2023-04-02T07:49:04.068Z,47.68
2023-04-02T07:50:04.041Z,47.08
2023-04-02T07:51:04.012Z,47.15
2023-04-02T07:52:03.987Z,46.01
2023-04-02T07:53:03.971Z,45.70
2023-04-02T07:54:03.948Z,46.41
2023-04-02T07:55:03.892Z,47.10
2023-04-02T07:56:03.872Z,47.42
2023-04-02T07:57:03.913Z,47.21
2023-04-02T07:58:03.828Z,47.32
2023-04-02T07:59:03.813Z,47.83
2023-04-02T08:00:03.832Z,46.93
2023-04-02T08:01:03.885Z,46.81
2023-04-02T08:02:03.752Z,47.26
2023-04-02T08:03:03.851Z,47.57
2023-04-02T08:04:03.739Z,47.71
2023-04-02T08:05:03.699Z,47.82
2023-04-02T08:06:03.691Z,47.23
2023-04-02T08:07:04.376Z,47.23
2023-04-02T08:08:03.743Z,47.26
2023-04-02T08:09:03.703Z,47.01
2023-04-02T08:10:03.754Z,46.25
2023-04-02T08:11:03.737Z,45.55
2023-04-02T08:12:03.698Z,45.38
2023-04-02T08:13:03.681Z,44.64
2023-04-02T08:14:03.670Z,44.63
2023-04-02T08:15:03.652Z,45.06
2023-04-02T08:16:03.697Z,45.26
2023-04-02T08:17:03.660Z,45.10
2023-04-02T08:18:03.701Z,45.47
2023-04-02T08:19:03.658Z,45.99
2023-04-02T08:20:03.681Z,45.90
2023-04-02T08:21:03.686Z,45.32
2023-04-02T08:22:03.756Z,45.24
2023-04-02T08:23:03.771Z,45.07
2023-04-02T08:24:03.841Z,45.01
2023-04-02T08:25:03.813Z,44.44
2023-04-02T08:26:03.844Z,43.91
2023-04-02T08:27:03.864Z,43.50
2023-04-02T08:28:03.898Z,42.64
2023-04-02T08:29:03.984Z,42.50
2023-04-02T08:30:03.944Z,42.43
2023-04-02T08:31:04.041Z,43.42
2023-04-02T08:32:04.935Z,44.25
2023-04-02T08:33:04.033Z,43.92
2023-04-02T08:34:04.018Z,44.14
2023-04-02T08:35:04.049Z,43.26
2023-04-02T08:36:04.125Z,42.93
2023-04-02T08:37:04.045Z,43.48
2023-04-02T08:38:04.061Z,43.35
2023-04-02T08:39:04.087Z,43.73
2023-04-02T08:40:04.084Z,43.24
2023-04-02T08:41:04.117Z,43.60
2023-04-02T08:42:04.139Z,43.33
2023-04-02T08:43:04.168Z,42.66
2023-04-02T08:44:04.246Z,42.49
2023-04-02T08:45:13.713Z,42.44
2023-04-02T08:46:05.243Z,42.40
2023-04-02T08:47:04.204Z,43.04
2023-04-02T08:48:04.264Z,43.23
2023-04-02T08:49:04.257Z,43.18
2023-04-02T08:50:04.105Z,42.89
2023-04-02T08:51:04.903Z,42.58
2023-04-02T08:52:04.047Z,42.33
2023-04-02T08:53:04.019Z,42.65
2023-04-02T08:54:03.998Z,43.00
2023-04-02T08:55:03.952Z,43.22
2023-04-02T08:56:03.901Z,43.39
2023-04-02T08:57:03.909Z,42.67
2023-04-02T08:58:03.926Z,42.38
2023-04-02T08:59:03.875Z,41.73
2023-04-02T09:00:04.414Z,40.66
2023-04-02T09:01:03.749Z,40.19
2023-04-02T09:02:03.797Z,40.46
2023-04-02T09:03:03.731Z,40.98
2023-04-02T09:04:06.396Z,41.13
2023-04-02T09:05:05.416Z,40.18
2023-04-02T09:06:03.606Z,40.02
2023-04-02T09:07:03.547Z,39.60
2023-04-02T09:08:03.520Z,39.98
2023-04-02T09:09:03.528Z,39.24
2023-04-02T09:10:04.382Z,38.80
2023-04-02T09:11:03.425Z,38.57
2023-04-02T09:12:03.360Z,37.85
2023-04-02T09:13:03.319Z,37.12
2023-04-02T09:14:03.895Z,36.50
2023-04-02T09:15:03.886Z,36.18
2023-04-02T09:16:03.220Z,35.87
2023-04-02T09:17:03.150Z,36.05
2023-04-02T09:18:03.249Z,35.18
2023-04-02T09:19:03.099Z,34.25
2023-04-02T09:20:03.899Z,33.20
2023-04-02T09:21:02.996Z,34.52
2023-04-02T09:22:02.967Z,33.37
2023-04-02T09:23:02.929Z,33.93
2023-04-02T09:24:04.040Z,32.82
2023-04-02T09:25:02.882Z,32.50
2023-04-02T09:26:04.827Z,33.41
2023-04-02T09:27:02.856Z,32.52
2023-04-02T09:28:02.883Z,32.69
2023-04-02T09:29:02.816Z,32.31
2023-04-02T09:30:02.750Z,32.02
2023-04-02T09:31:03.328Z,31.59
2023-04-02T09:32:02.725Z,30.13
2023-04-02T09:33:03.505Z,30.74
2023-04-02T09:34:02.648Z,30.55
2023-04-02T09:35:05.639Z,30.75
2023-04-02T09:36:03.659Z,31.10
2023-04-02T09:37:02.581Z,31.58
2023-04-02T09:38:04.418Z,31.88
2023-04-02T09:39:02.530Z,32.88
2023-04-02T09:40:02.527Z,33.42
2023-04-02T09:41:02.495Z,33.90
2023-04-02T09:42:05.757Z,33.44
2023-04-02T09:43:02.465Z,32.76
2023-04-02T09:44:03.385Z,32.33
2023-04-02T09:45:02.438Z,32.32
2023-04-02T09:46:02.416Z,32.56
2023-04-02T09:47:02.400Z,33.15
2023-04-02T09:48:02.383Z,32.45
2023-04-02T09:49:02.363Z,31.97
2023-04-02T09:50:02.362Z,32.18
2023-04-02T09:51:02.338Z,32.12
2023-04-02T09:52:02.336Z,31.15
2023-04-02T09:53:02.261Z,31.00
2023-04-02T09:54:02.208Z,30.64
2023-04-02T09:55:02.206Z,30.81
2023-04-02T09:56:02.172Z,31.33
2023-04-02T09:57:02.203Z,30.54
2023-04-02T09:58:03.102Z,30.52
2023-04-02T09:59:02.077Z,31.25
2023-04-02T10:00:02.078Z,32.04
2023-04-02T10:01:03.975Z,32.03
2023-04-02T10:02:01.972Z,31.42
2023-04-02T10:03:02.033Z,31.67
2023-04-02T10:04:02.933Z,31.68
2023-04-02T10:05:01.964Z,31.99
2023-04-02T10:06:01.902Z,31.54
2023-04-02T10:07:01.849Z,31.34
2023-04-02T10:08:01.820Z,31.06
2023-04-02T10:09:01.782Z,30.85
2023-04-02T10:10:01.792Z,31.61
2023-04-02T10:11:01.718Z,32.06
2023-04-02T10:12:01.711Z,31.48
2023-04-02T10:13:03.429Z,30.25
2023-04-02T10:14:01.623Z,30.00
2023-04-02T10:15:01.655Z,29.75
2023-04-02T10:16:01.587Z,30.05
2023-04-02T10:17:01.623Z,30.17
2023-04-02T10:18:01.633Z,30.39
2023-04-02T10:19:01.602Z,30.01
2023-04-02T10:20:01.651Z,30.33
2023-04-02T10:21:01.600Z,30.80
2023-04-02T10:22:01.598Z,31.41
2023-04-02T10:23:01.588Z,31.23
2023-04-02T10:24:01.611Z,30.17
2023-04-02T10:25:01.680Z,30.04
2023-04-02T10:26:01.593Z,30.56
2023-04-02T10:27:02.538Z,30.17
2023-04-02T10:28:01.539Z,30.10
2023-04-02T10:29:01.446Z,30.04
2023-04-02T10:30:01.415Z,30.09
2023-04-02T10:31:01.413Z,30.01
2023-04-02T10:32:01.911Z,30.29
2023-04-02T10:33:01.332Z,30.30
2023-04-02T10:34:01.213Z,30.05
2023-04-02T10:35:01.184Z,29.51
2023-04-02T10:36:01.125Z,29.73
2023-04-02T10:37:01.067Z,29.60
2023-04-02T10:38:01.016Z,29.59
2023-04-02T10:39:00.957Z,28.99
2023-04-02T10:40:00.967Z,29.89
2023-04-02T10:41:00.878Z,29.34
2023-04-02T10:42:00.799Z,29.31
2023-04-02T10:43:00.744Z,28.53
2023-04-02T10:44:12.611Z,28.68
2023-04-02T10:45:01.849Z,28.21
2023-04-02T10:46:00.873Z,28.36
2023-04-02T10:47:00.832Z,27.84
2023-04-02T10:48:00.870Z,27.73
2023-04-02T10:49:00.828Z,27.86
2023-04-02T10:50:00.816Z,27.74
2023-04-02T10:51:01.491Z,27.64
2023-04-02T10:52:00.769Z,28.04
2023-04-02T10:53:00.744Z,27.92
2023-04-02T10:54:00.743Z,27.29
2023-04-02T10:55:00.734Z,27.78
2023-04-02T10:56:00.722Z,27.83
2023-04-02T10:57:00.673Z,27.52
2023-04-02T10:58:01.407Z,26.99
2023-04-02T10:59:00.653Z,27.93
2023-04-02T11:00:00.644Z,27.95
2023-04-02T11:01:00.702Z,28.37
2023-04-02T11:02:00.652Z,28.70
2023-04-02T11:03:01.621Z,28.30
2023-04-02T11:04:00.668Z,28.10
2023-04-02T11:05:01.997Z,28.23
2023-04-02T11:06:00.660Z,28.90
2023-04-02T11:07:13.196Z,28.35
2023-04-02T11:08:01.631Z,28.84
2023-04-02T11:09:00.743Z,28.14
2023-04-02T11:10:01.434Z,27.93
2023-04-02T11:11:01.402Z,27.89
2023-04-02T11:12:00.499Z,28.35
2023-04-02T11:13:01.425Z,28.31
2023-04-02T11:14:00.400Z,28.51
2023-04-02T11:15:00.401Z,28.91
2023-04-02T11:16:00.370Z,28.54
2023-04-02T11:17:01.036Z,28.38
2023-04-02T11:18:00.260Z,27.91
2023-04-02T11:19:00.128Z,27.85
2023-04-02T11:20:00.050Z,27.58
2023-04-02T11:21:00.009Z,28.53
2023-04-02T11:22:01.486Z,29.73
2023-04-02T11:23:02.433Z,31.00
2023-04-02T11:24:00.056Z,31.12
2023-04-02T11:25:00.052Z,31.09
2023-04-02T11:26:00.069Z,31.06
2023-04-02T11:27:00.073Z,32.29
2023-04-02T11:28:00.127Z,32.86
2023-04-02T11:29:00.142Z,33.67
2023-04-02T11:30:00.173Z,33.38
2023-04-02T11:31:00.150Z,33.92
2023-04-02T11:32:00.135Z,33.70
2023-04-02T11:33:00.163Z,33.17
2023-04-02T11:34:00.090Z,33.15
2023-04-02T11:35:06.526Z,33.20
2023-04-02T11:36:01.075Z,33.37
2023-04-02T11:36:59.974Z,33.70
2023-04-02T11:37:59.935Z,33.91
2023-04-02T11:39:14.752Z,34.31
2023-04-02T11:40:01.412Z,34.00
2023-04-02T11:40:59.879Z,33.70
2023-04-02T11:41:59.830Z,34.34
2023-04-02T11:42:59.915Z,34.49
2023-04-02T11:43:59.837Z,34.29
2023-04-02T11:44:59.756Z,33.86
2023-04-02T11:45:59.742Z,34.03
2023-04-02T11:46:59.769Z,33.59
2023-04-02T11:48:00.562Z,34.20
2023-04-02T11:48:59.623Z,34.13
2023-04-02T11:49:59.602Z,34.28
2023-04-02T11:50:59.651Z,34.52
2023-04-02T11:52:11.550Z,34.68
2023-04-02T11:53:00.556Z,35.00
2023-04-02T11:54:00.609Z,35.14
2023-04-02T11:54:59.509Z,35.26
2023-04-02T11:55:59.941Z,35.56
2023-04-02T11:56:59.501Z,35.89
2023-04-02T11:57:59.452Z,35.79
2023-04-02T11:58:59.430Z,35.73
2023-04-02T11:59:59.410Z,35.72
2023-04-02T12:00:59.377Z,34.95
2023-04-02T12:01:59.370Z,35.16
2023-04-02T12:03:00.973Z,35.16
2023-04-02T12:03:59.305Z,35.33
2023-04-02T12:04:59.322Z,34.86
2023-04-02T12:05:59.286Z,34.80
2023-04-02T12:06:59.266Z,35.02
2023-04-02T12:07:59.945Z,35.48
2023-04-02T12:08:59.324Z,35.85
2023-04-02T12:09:59.271Z,35.66
2023-04-02T12:10:59.338Z,36.17
2023-04-02T12:11:59.297Z,35.48
2023-04-02T12:12:59.280Z,35.61
2023-04-02T12:13:59.329Z,35.31
2023-04-02T12:14:59.309Z,35.28
2023-04-02T12:15:59.459Z,35.22
2023-04-02T12:16:59.315Z,35.51
2023-04-02T12:17:59.321Z,35.67
2023-04-02T12:18:59.325Z,35.81
2023-04-02T12:19:59.943Z,35.95
2023-04-02T12:20:59.448Z,35.78
2023-04-02T12:21:59.385Z,35.81
2023-04-02T12:22:59.370Z,35.83
2023-04-02T12:23:59.400Z,35.77
2023-04-02T12:24:59.411Z,36.07
2023-04-02T12:25:59.447Z,36.19
2023-04-02T12:26:59.473Z,36.69
2023-04-02T12:27:59.510Z,37.71
2023-04-02T12:28:59.514Z,37.67
2023-04-02T12:29:59.539Z,37.54
2023-04-02T12:30:59.622Z,37.64
2023-04-02T12:31:59.660Z,37.79
2023-04-02T12:32:59.721Z,37.73
2023-04-02T12:33:59.716Z,37.85
2023-04-02T12:34:59.767Z,38.14
2023-04-02T12:35:59.861Z,38.73
2023-04-02T12:36:59.801Z,38.64
2023-04-02T12:38:00.560Z,38.28
2023-04-02T12:38:59.817Z,38.77
2023-04-02T12:39:59.847Z,38.68
2023-04-02T12:40:59.894Z,38.85
2023-04-02T12:41:59.908Z,38.66
2023-04-02T12:42:59.931Z,37.88
2023-04-02T12:43:59.958Z,37.83
2023-04-02T12:44:59.979Z,38.09
2023-04-02T12:46:00.060Z,38.24
2023-04-02T12:46:59.995Z,38.38
2023-04-02T12:48:00.017Z,37.45
2023-04-02T12:48:59.991Z,37.36
2023-04-02T12:49:59.974Z,36.85
2023-04-02T12:51:02.035Z,36.33
2023-04-02T12:51:59.954Z,35.50
2023-04-02T12:52:59.935Z,35.31
2023-04-02T12:53:59.937Z,34.95